sensor_id;sensor_type;location;lat;lon;timestamp;temperature;humidity
54700;DHT22;40599;53.132;6.090;2022-07-19T00:01:51;18.20;99.90
54700;DHT22;40599;53.132;6.090;2022-07-19T00:04:17;18.20;99.90
54700;DHT22;40599;53.132;6.090;2022-07-19T00:06:42;18.10;99.90
54700;DHT22;40599;53.132;6.090;2022-07-19T00:09:08;18.00;99.90
54700;DHT22;40599;53.132;6.090;2022-07-19T00:11:34;18.00;99.90
54700;DHT22;40599;53.132;6.090;2022-07-19T00:14:00;17.90;99.90
54700;DHT22;40599;53.132;6.090;2022-07-19T00:16:25;17.90;99.90
54700;DHT22;40599;53.132;6.090;2022-07-19T00:18:51;17.90;99.90
54700;DHT22;40599;53.132;6.090;2022-07-19T00:21:17;17.80;99.90
54700;DHT22;40599;53.132;6.090;2022-07-19T00:23:43;17.80;99.90
54700;DHT22;40599;53.132;6.090;2022-07-19T00:26:08;17.80;99.90
54700;DHT22;40599;53.132;6.090;2022-07-19T00:28:34;17.70;99.90
54700;DHT22;40599;53.132;6.090;2022-07-19T00:31:00;17.80;99.90
54700;DHT22;40599;53.132;6.090;2022-07-19T00:33:26;17.70;99.90
54700;DHT22;40599;53.132;6.090;2022-07-19T00:35:52;17.70;99.90
54700;DHT22;40599;53.132;6.090;2022-07-19T00:38:17;17.60;99.90
54700;DHT22;40599;53.132;6.090;2022-07-19T00:40:43;17.50;99.90
54700;DHT22;40599;53.132;6.090;2022-07-19T00:43:10;17.50;99.90
54700;DHT22;40599;53.132;6.090;2022-07-19T00:45:36;17.40;99.90
54700;DHT22;40599;53.132;6.090;2022-07-19T00:48:03;17.30;99.90
54700;DHT22;40599;53.132;6.090;2022-07-19T00:50:29;17.30;99.90
54700;DHT22;40599;53.132;6.090;2022-07-19T00:52:58;17.40;99.90
54700;DHT22;40599;53.132;6.090;2022-07-19T00:55:33;17.30;99.90
54700;DHT22;40599;53.132;6.090;2022-07-19T00:58:01;17.40;99.90
54700;DHT22;40599;53.132;6.090;2022-07-19T01:00:29;17.40;99.90
54700;DHT22;40599;53.132;6.090;2022-07-19T01:02:56;17.40;99.90
54700;DHT22;40599;53.132;6.090;2022-07-19T01:05:22;17.40;99.90
54700;DHT22;40599;53.132;6.090;2022-07-19T01:07:49;17.40;99.90
54700;DHT22;40599;53.132;6.090;2022-07-19T01:10:14;17.40;99.90
54700;DHT22;40599;53.132;6.090;2022-07-19T01:12:41;17.30;99.90
54700;DHT22;40599;53.132;6.090;2022-07-19T01:15:20;17.30;99.90
54700;DHT22;40599;53.132;6.090;2022-07-19T01:17:47;17.30;99.90
54700;DHT22;40599;53.132;6.090;2022-07-19T01:20:13;17.20;99.90
54700;DHT22;40599;53.132;6.090;2022-07-19T01:22:41;17.20;99.90
54700;DHT22;40599;53.132;6.090;2022-07-19T01:25:07;17.10;99.90
54700;DHT22;40599;53.132;6.090;2022-07-19T01:27:41;17.10;99.90
54700;DHT22;40599;53.132;6.090;2022-07-19T01:30:17;17.10;99.90
54700;DHT22;40599;53.132;6.090;2022-07-19T01:32:44;17.00;99.90
54700;DHT22;40599;53.132;6.090;2022-07-19T01:35:11;17.00;99.90
54700;DHT22;40599;53.132;6.090;2022-07-19T01:37:37;17.00;99.90
54700;DHT22;40599;53.132;6.090;2022-07-19T01:40:04;16.90;99.90
54700;DHT22;40599;53.132;6.090;2022-07-19T01:42:30;16.80;99.90
54700;DHT22;40599;53.132;6.090;2022-07-19T01:44:56;16.90;99.90
54700;DHT22;40599;53.132;6.090;2022-07-19T01:47:22;16.60;99.90
54700;DHT22;40599;53.132;6.090;2022-07-19T01:49:48;16.80;99.90
54700;DHT22;40599;53.132;6.090;2022-07-19T01:52:14;16.80;99.90
54700;DHT22;40599;53.132;6.090;2022-07-19T01:54:40;16.80;99.90
54700;DHT22;40599;53.132;6.090;2022-07-19T01:57:05;16.80;99.90
54700;DHT22;40599;53.132;6.090;2022-07-19T01:59:31;16.80;99.90
54700;DHT22;40599;53.132;6.090;2022-07-19T02:01:57;16.80;99.90
54700;DHT22;40599;53.132;6.090;2022-07-19T02:04:23;16.80;99.90
54700;DHT22;40599;53.132;6.090;2022-07-19T02:06:49;16.90;99.90
54700;DHT22;40599;53.132;6.090;2022-07-19T02:09:14;16.90;99.90
54700;DHT22;40599;53.132;6.090;2022-07-19T02:11:41;16.90;99.90
54700;DHT22;40599;53.132;6.090;2022-07-19T02:14:07;16.90;99.90
54700;DHT22;40599;53.132;6.090;2022-07-19T02:16:35;16.90;99.90
54700;DHT22;40599;53.132;6.090;2022-07-19T02:19:01;16.90;99.90
54700;DHT22;40599;53.132;6.090;2022-07-19T02:21:27;16.90;99.90
54700;DHT22;40599;53.132;6.090;2022-07-19T02:23:53;16.80;99.90
54700;DHT22;40599;53.132;6.090;2022-07-19T02:26:18;16.80;99.90
54700;DHT22;40599;53.132;6.090;2022-07-19T02:28:44;16.80;99.90
54700;DHT22;40599;53.132;6.090;2022-07-19T02:31:10;16.80;99.90
54700;DHT22;40599;53.132;6.090;2022-07-19T02:33:36;16.70;99.90
54700;DHT22;40599;53.132;6.090;2022-07-19T02:36:02;16.70;99.90
54700;DHT22;40599;53.132;6.090;2022-07-19T02:38:29;16.70;99.90
54700;DHT22;40599;53.132;6.090;2022-07-19T02:40:55;16.60;99.90
54700;DHT22;40599;53.132;6.090;2022-07-19T02:43:21;16.60;99.90
54700;DHT22;40599;53.132;6.090;2022-07-19T02:45:47;16.60;99.90
54700;DHT22;40599;53.132;6.090;2022-07-19T02:48:13;16.50;99.90
54700;DHT22;40599;53.132;6.090;2022-07-19T02:50:38;16.50;99.90
54700;DHT22;40599;53.132;6.090;2022-07-19T02:53:04;16.50;99.90
54700;DHT22;40599;53.132;6.090;2022-07-19T02:55:30;16.40;99.90
54700;DHT22;40599;53.132;6.090;2022-07-19T02:57:56;16.40;99.90
54700;DHT22;40599;53.132;6.090;2022-07-19T03:00:22;16.40;99.90
54700;DHT22;40599;53.132;6.090;2022-07-19T03:02:48;16.30;99.90
54700;DHT22;40599;53.132;6.090;2022-07-19T03:05:14;16.30;99.90
54700;DHT22;40599;53.132;6.090;2022-07-19T03:07:39;16.30;99.90
54700;DHT22;40599;53.132;6.090;2022-07-19T03:10:05;16.30;99.90
54700;DHT22;40599;53.132;6.090;2022-07-19T03:12:32;16.30;99.90
54700;DHT22;40599;53.132;6.090;2022-07-19T03:14:57;16.30;99.90
54700;DHT22;40599;53.132;6.090;2022-07-19T03:17:24;16.30;99.90
54700;DHT22;40599;53.132;6.090;2022-07-19T03:19:49;16.30;99.90
54700;DHT22;40599;53.132;6.090;2022-07-19T03:22:15;16.30;99.90
54700;DHT22;40599;53.132;6.090;2022-07-19T03:24:41;16.30;99.90
54700;DHT22;40599;53.132;6.090;2022-07-19T03:27:07;16.30;99.90
54700;DHT22;40599;53.132;6.090;2022-07-19T03:29:32;16.40;99.90
54700;DHT22;40599;53.132;6.090;2022-07-19T03:31:58;16.30;99.90
54700;DHT22;40599;53.132;6.090;2022-07-19T03:34:25;16.30;99.90
54700;DHT22;40599;53.132;6.090;2022-07-19T03:36:51;16.30;99.90
54700;DHT22;40599;53.132;6.090;2022-07-19T03:39:17;16.30;99.90
54700;DHT22;40599;53.132;6.090;2022-07-19T03:41:43;16.30;99.90
54700;DHT22;40599;53.132;6.090;2022-07-19T03:44:08;16.30;99.90
54700;DHT22;40599;53.132;6.090;2022-07-19T03:46:34;16.40;99.90
54700;DHT22;40599;53.132;6.090;2022-07-19T03:49:00;16.30;99.90
54700;DHT22;40599;53.132;6.090;2022-07-19T03:51:26;16.40;99.90
54700;DHT22;40599;53.132;6.090;2022-07-19T03:53:52;16.40;99.90
54700;DHT22;40599;53.132;6.090;2022-07-19T03:56:17;16.40;99.90
54700;DHT22;40599;53.132;6.090;2022-07-19T03:58:43;16.40;99.90
54700;DHT22;40599;53.132;6.090;2022-07-19T04:01:10;16.40;99.90
54700;DHT22;40599;53.132;6.090;2022-07-19T04:03:37;16.40;99.90
54700;DHT22;40599;53.132;6.090;2022-07-19T04:06:04;16.40;99.90
54700;DHT22;40599;53.132;6.090;2022-07-19T04:08:30;16.40;99.90
54700;DHT22;40599;53.132;6.090;2022-07-19T04:10:56;16.50;99.90
54700;DHT22;40599;53.132;6.090;2022-07-19T04:13:22;16.40;99.90
54700;DHT22;40599;53.132;6.090;2022-07-19T04:15:47;16.50;99.90
54700;DHT22;40599;53.132;6.090;2022-07-19T04:18:13;16.50;99.90
54700;DHT22;40599;53.132;6.090;2022-07-19T04:20:39;16.50;99.90
54700;DHT22;40599;53.132;6.090;2022-07-19T04:23:05;16.60;99.90
54700;DHT22;40599;53.132;6.090;2022-07-19T04:25:30;16.60;99.90
54700;DHT22;40599;53.132;6.090;2022-07-19T04:27:56;16.60;99.90
54700;DHT22;40599;53.132;6.090;2022-07-19T04:30:22;16.70;99.90
54700;DHT22;40599;53.132;6.090;2022-07-19T04:32:48;16.70;99.90
54700;DHT22;40599;53.132;6.090;2022-07-19T04:35:14;16.80;99.90
54700;DHT22;40599;53.132;6.090;2022-07-19T04:37:41;16.90;99.90
54700;DHT22;40599;53.132;6.090;2022-07-19T04:40:08;16.90;99.90
54700;DHT22;40599;53.132;6.090;2022-07-19T04:42:34;17.00;99.90
54700;DHT22;40599;53.132;6.090;2022-07-19T04:45:00;17.10;99.90
54700;DHT22;40599;53.132;6.090;2022-07-19T04:47:25;17.10;99.90
54700;DHT22;40599;53.132;6.090;2022-07-19T04:49:51;17.20;99.90
54700;DHT22;40599;53.132;6.090;2022-07-19T04:52:17;17.30;99.90
54700;DHT22;40599;53.132;6.090;2022-07-19T04:54:43;17.40;99.90
54700;DHT22;40599;53.132;6.090;2022-07-19T04:57:08;17.50;99.90
54700;DHT22;40599;53.132;6.090;2022-07-19T04:59:34;17.60;99.90
54700;DHT22;40599;53.132;6.090;2022-07-19T05:02:00;17.80;99.90
54700;DHT22;40599;53.132;6.090;2022-07-19T05:04:26;17.80;99.90
54700;DHT22;40599;53.132;6.090;2022-07-19T05:06:51;18.00;99.90
54700;DHT22;40599;53.132;6.090;2022-07-19T05:09:26;18.10;99.90
54700;DHT22;40599;53.132;6.090;2022-07-19T05:11:53;18.20;99.90
54700;DHT22;40599;53.132;6.090;2022-07-19T05:14:19;18.30;99.90
54700;DHT22;40599;53.132;6.090;2022-07-19T05:16:46;18.40;99.90
54700;DHT22;40599;53.132;6.090;2022-07-19T05:19:12;18.40;99.90
54700;DHT22;40599;53.132;6.090;2022-07-19T05:21:37;18.50;99.90
54700;DHT22;40599;53.132;6.090;2022-07-19T05:24:03;18.50;99.90
54700;DHT22;40599;53.132;6.090;2022-07-19T05:26:29;18.60;99.90
54700;DHT22;40599;53.132;6.090;2022-07-19T05:28:57;18.70;99.90
54700;DHT22;40599;53.132;6.090;2022-07-19T05:31:22;18.70;99.90
54700;DHT22;40599;53.132;6.090;2022-07-19T05:33:48;18.80;99.90
54700;DHT22;40599;53.132;6.090;2022-07-19T05:36:14;18.90;99.90
54700;DHT22;40599;53.132;6.090;2022-07-19T05:38:40;19.00;99.90
54700;DHT22;40599;53.132;6.090;2022-07-19T05:41:09;19.10;99.90
54700;DHT22;40599;53.132;6.090;2022-07-19T05:43:36;19.20;99.90
54700;DHT22;40599;53.132;6.090;2022-07-19T05:46:03;19.30;99.90
54700;DHT22;40599;53.132;6.090;2022-07-19T05:48:30;19.30;99.90
54700;DHT22;40599;53.132;6.090;2022-07-19T05:50:56;19.50;99.90
54700;DHT22;40599;53.132;6.090;2022-07-19T05:53:22;19.50;99.90
54700;DHT22;40599;53.132;6.090;2022-07-19T05:55:47;19.70;99.90
54700;DHT22;40599;53.132;6.090;2022-07-19T05:58:13;19.80;99.90
54700;DHT22;40599;53.132;6.090;2022-07-19T06:00:39;19.90;99.90
54700;DHT22;40599;53.132;6.090;2022-07-19T06:03:25;20.10;99.90
54700;DHT22;40599;53.132;6.090;2022-07-19T06:05:50;20.30;99.90
54700;DHT22;40599;53.132;6.090;2022-07-19T06:08:16;20.40;99.90
54700;DHT22;40599;53.132;6.090;2022-07-19T06:10:42;20.50;99.90
54700;DHT22;40599;53.132;6.090;2022-07-19T06:13:08;20.70;99.90
54700;DHT22;40599;53.132;6.090;2022-07-19T06:15:33;20.90;99.90
54700;DHT22;40599;53.132;6.090;2022-07-19T06:17:59;21.00;99.90
54700;DHT22;40599;53.132;6.090;2022-07-19T06:20:25;21.20;99.90
54700;DHT22;40599;53.132;6.090;2022-07-19T06:22:50;21.20;99.90
54700;DHT22;40599;53.132;6.090;2022-07-19T06:25:16;21.30;99.90
54700;DHT22;40599;53.132;6.090;2022-07-19T06:27:42;21.50;99.90
54700;DHT22;40599;53.132;6.090;2022-07-19T06:30:08;21.50;99.90
54700;DHT22;40599;53.132;6.090;2022-07-19T06:32:34;21.70;99.90
54700;DHT22;40599;53.132;6.090;2022-07-19T06:34:59;21.80;99.90
54700;DHT22;40599;53.132;6.090;2022-07-19T06:37:25;21.90;99.90
54700;DHT22;40599;53.132;6.090;2022-07-19T06:39:51;22.00;99.90
54700;DHT22;40599;53.132;6.090;2022-07-19T06:42:17;22.10;99.90
54700;DHT22;40599;53.132;6.090;2022-07-19T06:44:42;22.20;99.90
54700;DHT22;40599;53.132;6.090;2022-07-19T06:47:08;22.30;99.90
54700;DHT22;40599;53.132;6.090;2022-07-19T06:49:34;22.40;99.90
54700;DHT22;40599;53.132;6.090;2022-07-19T06:51:59;22.50;99.90
54700;DHT22;40599;53.132;6.090;2022-07-19T06:54:27;22.60;99.90
54700;DHT22;40599;53.132;6.090;2022-07-19T06:56:53;22.70;99.90
54700;DHT22;40599;53.132;6.090;2022-07-19T06:59:19;22.80;99.90
54700;DHT22;40599;53.132;6.090;2022-07-19T07:01:45;22.90;99.90
54700;DHT22;40599;53.132;6.090;2022-07-19T07:06:37;23.30;99.90
54700;DHT22;40599;53.132;6.090;2022-07-19T07:09:03;23.60;99.90
54700;DHT22;40599;53.132;6.090;2022-07-19T07:11:29;23.80;99.90
54700;DHT22;40599;53.132;6.090;2022-07-19T07:13:55;24.10;99.90
54700;DHT22;40599;53.132;6.090;2022-07-19T07:16:21;24.30;99.90
54700;DHT22;40599;53.132;6.090;2022-07-19T07:18:47;24.60;99.90
54700;DHT22;40599;53.132;6.090;2022-07-19T07:21:12;24.80;99.90
54700;DHT22;40599;53.132;6.090;2022-07-19T07:23:38;25.10;99.90
54700;DHT22;40599;53.132;6.090;2022-07-19T07:26:04;25.40;99.90
54700;DHT22;40599;53.132;6.090;2022-07-19T07:28:30;25.60;99.90
54700;DHT22;40599;53.132;6.090;2022-07-19T07:30:56;25.80;99.90
54700;DHT22;40599;53.132;6.090;2022-07-19T07:33:22;26.00;99.90
54700;DHT22;40599;53.132;6.090;2022-07-19T07:35:48;26.30;99.90
54700;DHT22;40599;53.132;6.090;2022-07-19T07:38:14;26.60;99.90
54700;DHT22;40599;53.132;6.090;2022-07-19T07:40:40;26.80;99.90
54700;DHT22;40599;53.132;6.090;2022-07-19T07:43:05;27.10;99.90
54700;DHT22;40599;53.132;6.090;2022-07-19T07:45:32;27.40;99.90
54700;DHT22;40599;53.132;6.090;2022-07-19T07:47:58;27.60;99.90
54700;DHT22;40599;53.132;6.090;2022-07-19T07:50:24;27.80;99.90
54700;DHT22;40599;53.132;6.090;2022-07-19T07:52:50;27.90;99.90
54700;DHT22;40599;53.132;6.090;2022-07-19T07:55:16;28.10;99.90
54700;DHT22;40599;53.132;6.090;2022-07-19T07:57:42;28.40;99.90
54700;DHT22;40599;53.132;6.090;2022-07-19T08:00:09;28.50;99.90
54700;DHT22;40599;53.132;6.090;2022-07-19T08:02:43;28.70;99.90
54700;DHT22;40599;53.132;6.090;2022-07-19T08:05:11;28.90;99.90
54700;DHT22;40599;53.132;6.090;2022-07-19T08:10:03;29.30;99.90
54700;DHT22;40599;53.132;6.090;2022-07-19T08:12:31;29.60;99.90
54700;DHT22;40599;53.132;6.090;2022-07-19T08:14:58;29.60;99.90
54700;DHT22;40599;53.132;6.090;2022-07-19T08:17:24;29.90;99.90
54700;DHT22;40599;53.132;6.090;2022-07-19T08:19:50;30.10;99.90
54700;DHT22;40599;53.132;6.090;2022-07-19T08:22:16;30.30;99.90
54700;DHT22;40599;53.132;6.090;2022-07-19T08:24:44;30.40;99.90
54700;DHT22;40599;53.132;6.090;2022-07-19T08:27:10;30.50;99.90
54700;DHT22;40599;53.132;6.090;2022-07-19T08:29:36;30.60;99.90
54700;DHT22;40599;53.132;6.090;2022-07-19T08:32:02;30.70;99.90
54700;DHT22;40599;53.132;6.090;2022-07-19T08:34:27;31.10;99.90
54700;DHT22;40599;53.132;6.090;2022-07-19T08:36:53;31.00;99.90
54700;DHT22;40599;53.132;6.090;2022-07-19T08:39:19;31.10;99.90
54700;DHT22;40599;53.132;6.090;2022-07-19T08:41:45;31.00;99.90
54700;DHT22;40599;53.132;6.090;2022-07-19T08:44:12;31.20;99.90
54700;DHT22;40599;53.132;6.090;2022-07-19T08:46:40;31.30;99.90
54700;DHT22;40599;53.132;6.090;2022-07-19T08:49:06;31.30;99.90
54700;DHT22;40599;53.132;6.090;2022-07-19T08:51:31;31.40;99.90
54700;DHT22;40599;53.132;6.090;2022-07-19T08:53:57;31.40;99.90
54700;DHT22;40599;53.132;6.090;2022-07-19T08:56:23;31.50;99.90
54700;DHT22;40599;53.132;6.090;2022-07-19T08:59:08;31.60;99.90
54700;DHT22;40599;53.132;6.090;2022-07-19T09:01:35;31.80;99.90
54700;DHT22;40599;53.132;6.090;2022-07-19T09:04:13;31.80;99.90
54700;DHT22;40599;53.132;6.090;2022-07-19T09:06:51;32.00;99.90
54700;DHT22;40599;53.132;6.090;2022-07-19T09:09:23;31.90;99.90
54700;DHT22;40599;53.132;6.090;2022-07-19T09:11:54;31.80;99.90
54700;DHT22;40599;53.132;6.090;2022-07-19T09:19:22;32.00;99.90
54700;DHT22;40599;53.132;6.090;2022-07-19T09:22:03;32.10;99.90
54700;DHT22;40599;53.132;6.090;2022-07-19T09:24:31;32.20;99.90
54700;DHT22;40599;53.132;6.090;2022-07-19T09:27:03;32.20;99.90
54700;DHT22;40599;53.132;6.090;2022-07-19T09:37:19;32.60;99.90
54700;DHT22;40599;53.132;6.090;2022-07-19T09:39:49;32.70;99.90
54700;DHT22;40599;53.132;6.090;2022-07-19T09:42:19;32.90;99.90
54700;DHT22;40599;53.132;6.090;2022-07-19T09:44:46;33.20;99.90
54700;DHT22;40599;53.132;6.090;2022-07-19T09:47:12;33.40;99.90
54700;DHT22;40599;53.132;6.090;2022-07-19T09:49:39;33.40;99.90
54700;DHT22;40599;53.132;6.090;2022-07-19T09:52:04;33.50;99.90
54700;DHT22;40599;53.132;6.090;2022-07-19T09:54:31;33.60;99.90
54700;DHT22;40599;53.132;6.090;2022-07-19T09:56:59;33.60;99.90
54700;DHT22;40599;53.132;6.090;2022-07-19T09:59:26;33.50;99.90
54700;DHT22;40599;53.132;6.090;2022-07-19T10:01:53;33.10;99.90
54700;DHT22;40599;53.132;6.090;2022-07-19T10:04:22;33.10;99.90
54700;DHT22;40599;53.132;6.090;2022-07-19T10:06:49;33.00;99.90
54700;DHT22;40599;53.132;6.090;2022-07-19T10:09:18;33.10;99.90
54700;DHT22;40599;53.132;6.090;2022-07-19T10:11:44;33.40;99.90
54700;DHT22;40599;53.132;6.090;2022-07-19T10:14:10;33.40;99.90
54700;DHT22;40599;53.132;6.090;2022-07-19T10:17:08;33.60;99.90
54700;DHT22;40599;53.132;6.090;2022-07-19T10:19:41;33.80;99.90
54700;DHT22;40599;53.132;6.090;2022-07-19T10:22:11;33.80;99.90
54700;DHT22;40599;53.132;6.090;2022-07-19T10:27:12;34.00;99.90
54700;DHT22;40599;53.132;6.090;2022-07-19T10:29:38;34.10;99.90
54700;DHT22;40599;53.132;6.090;2022-07-19T10:32:06;34.00;99.90
54700;DHT22;40599;53.132;6.090;2022-07-19T10:34:32;34.00;99.90
54700;DHT22;40599;53.132;6.090;2022-07-19T10:36:58;34.10;99.90
54700;DHT22;40599;53.132;6.090;2022-07-19T10:39:26;34.10;99.90
54700;DHT22;40599;53.132;6.090;2022-07-19T10:42:13;34.20;99.90
54700;DHT22;40599;53.132;6.090;2022-07-19T10:50:13;34.60;99.90
54700;DHT22;40599;53.132;6.090;2022-07-19T10:52:47;34.70;99.90
54700;DHT22;40599;53.132;6.090;2022-07-19T10:57:51;34.80;99.90
54700;DHT22;40599;53.132;6.090;2022-07-19T11:00:21;34.70;99.90
54700;DHT22;40599;53.132;6.090;2022-07-19T11:02:48;34.60;99.90
54700;DHT22;40599;53.132;6.090;2022-07-19T11:05:26;34.50;99.90
54700;DHT22;40599;53.132;6.090;2022-07-19T11:07:54;34.60;99.90
54700;DHT22;40599;53.132;6.090;2022-07-19T11:10:29;34.50;99.90
54700;DHT22;40599;53.132;6.090;2022-07-19T11:12:57;34.60;99.90
54700;DHT22;40599;53.132;6.090;2022-07-19T11:15:23;34.60;99.90
54700;DHT22;40599;53.132;6.090;2022-07-19T11:17:58;34.70;99.90
54700;DHT22;40599;53.132;6.090;2022-07-19T11:20:26;34.80;99.60
54700;DHT22;40599;53.132;6.090;2022-07-19T11:22:53;34.70;99.80
54700;DHT22;40599;53.132;6.090;2022-07-19T11:27:51;34.90;99.60
54700;DHT22;40599;53.132;6.090;2022-07-19T11:30:16;34.90;99.30
54700;DHT22;40599;53.132;6.090;2022-07-19T11:32:43;35.00;99.10
54700;DHT22;40599;53.132;6.090;2022-07-19T11:35:15;35.20;99.00
54700;DHT22;40599;53.132;6.090;2022-07-19T11:37:42;35.20;98.80
54700;DHT22;40599;53.132;6.090;2022-07-19T11:40:10;35.30;98.70
54700;DHT22;40599;53.132;6.090;2022-07-19T11:42:42;35.50;99.00
54700;DHT22;40599;53.132;6.090;2022-07-19T11:45:14;35.70;98.50
54700;DHT22;40599;53.132;6.090;2022-07-19T11:47:45;35.80;98.70
54700;DHT22;40599;53.132;6.090;2022-07-19T11:50:15;35.70;97.80
54700;DHT22;40599;53.132;6.090;2022-07-19T11:53:01;35.80;97.80
54700;DHT22;40599;53.132;6.090;2022-07-19T11:55:34;35.70;96.60
54700;DHT22;40599;53.132;6.090;2022-07-19T11:58:06;35.70;98.00
54700;DHT22;40599;53.132;6.090;2022-07-19T12:00:33;35.70;97.90
54700;DHT22;40599;53.132;6.090;2022-07-19T12:03:02;35.70;96.70
54700;DHT22;40599;53.132;6.090;2022-07-19T12:05:36;35.90;96.80
54700;DHT22;40599;53.132;6.090;2022-07-19T12:08:05;35.90;96.50
54700;DHT22;40599;53.132;6.090;2022-07-19T12:10:44;35.80;96.40
54700;DHT22;40599;53.132;6.090;2022-07-19T12:13:28;35.90;95.70
54700;DHT22;40599;53.132;6.090;2022-07-19T12:15:56;35.80;95.50
54700;DHT22;40599;53.132;6.090;2022-07-19T12:24:22;36.20;96.40
54700;DHT22;40599;53.132;6.090;2022-07-19T12:32:06;36.10;96.20
54700;DHT22;40599;53.132;6.090;2022-07-19T12:34:50;36.20;96.30
54700;DHT22;40599;53.132;6.090;2022-07-19T12:37:27;36.20;95.40
54700;DHT22;40599;53.132;6.090;2022-07-19T12:39:57;36.20;95.40
54700;DHT22;40599;53.132;6.090;2022-07-19T12:42:23;36.10;95.20
54700;DHT22;40599;53.132;6.090;2022-07-19T12:44:49;36.10;95.60
54700;DHT22;40599;53.132;6.090;2022-07-19T12:47:16;36.20;95.60
54700;DHT22;40599;53.132;6.090;2022-07-19T12:49:46;36.20;95.90
54700;DHT22;40599;53.132;6.090;2022-07-19T12:52:12;36.20;95.60
54700;DHT22;40599;53.132;6.090;2022-07-19T12:54:39;36.10;95.20
54700;DHT22;40599;53.132;6.090;2022-07-19T12:57:05;36.10;94.60
54700;DHT22;40599;53.132;6.090;2022-07-19T12:59:31;36.00;94.70
54700;DHT22;40599;53.132;6.090;2022-07-19T13:02:12;36.10;95.40
54700;DHT22;40599;53.132;6.090;2022-07-19T13:04:39;36.10;95.10
54700;DHT22;40599;53.132;6.090;2022-07-19T13:07:07;36.10;95.70
54700;DHT22;40599;53.132;6.090;2022-07-19T13:09:34;36.20;95.00
54700;DHT22;40599;53.132;6.090;2022-07-19T13:12:01;36.20;94.80
54700;DHT22;40599;53.132;6.090;2022-07-19T13:14:28;36.40;95.00
54700;DHT22;40599;53.132;6.090;2022-07-19T13:16:54;36.20;94.90
54700;DHT22;40599;53.132;6.090;2022-07-19T13:19:20;36.20;94.60
54700;DHT22;40599;53.132;6.090;2022-07-19T13:21:46;36.00;94.70
54700;DHT22;40599;53.132;6.090;2022-07-19T13:24:12;36.10;94.80
54700;DHT22;40599;53.132;6.090;2022-07-19T13:26:37;36.10;94.90
54700;DHT22;40599;53.132;6.090;2022-07-19T13:29:03;36.20;94.70
54700;DHT22;40599;53.132;6.090;2022-07-19T13:31:29;36.20;94.40
54700;DHT22;40599;53.132;6.090;2022-07-19T13:33:55;36.30;95.10
54700;DHT22;40599;53.132;6.090;2022-07-19T13:36:21;36.50;95.30
54700;DHT22;40599;53.132;6.090;2022-07-19T13:38:47;36.60;95.20
54700;DHT22;40599;53.132;6.090;2022-07-19T13:41:14;36.70;94.30
54700;DHT22;40599;53.132;6.090;2022-07-19T13:43:40;36.90;94.10
54700;DHT22;40599;53.132;6.090;2022-07-19T13:46:06;36.70;93.00
54700;DHT22;40599;53.132;6.090;2022-07-19T13:48:32;36.60;92.80
54700;DHT22;40599;53.132;6.090;2022-07-19T13:50:58;36.40;93.00
54700;DHT22;40599;53.132;6.090;2022-07-19T13:53:24;36.50;93.10
54700;DHT22;40599;53.132;6.090;2022-07-19T13:55:49;36.70;93.40
54700;DHT22;40599;53.132;6.090;2022-07-19T13:58:15;36.90;93.20
54700;DHT22;40599;53.132;6.090;2022-07-19T14:00:42;36.80;93.30
54700;DHT22;40599;53.132;6.090;2022-07-19T14:03:13;36.90;92.90
54700;DHT22;40599;53.132;6.090;2022-07-19T14:05:39;36.90;92.90
54700;DHT22;40599;53.132;6.090;2022-07-19T14:08:05;36.80;92.60
54700;DHT22;40599;53.132;6.090;2022-07-19T14:10:30;36.80;93.10
54700;DHT22;40599;53.132;6.090;2022-07-19T14:12:56;36.70;93.10
54700;DHT22;40599;53.132;6.090;2022-07-19T14:15:22;36.70;92.80
54700;DHT22;40599;53.132;6.090;2022-07-19T14:17:48;36.50;92.50
54700;DHT22;40599;53.132;6.090;2022-07-19T14:20:13;36.40;92.50
54700;DHT22;40599;53.132;6.090;2022-07-19T14:22:39;36.60;92.30
54700;DHT22;40599;53.132;6.090;2022-07-19T14:25:05;36.60;92.50
54700;DHT22;40599;53.132;6.090;2022-07-19T14:27:31;36.70;92.30
54700;DHT22;40599;53.132;6.090;2022-07-19T14:29:57;36.60;92.10
54700;DHT22;40599;53.132;6.090;2022-07-19T14:32:23;36.80;92.40
54700;DHT22;40599;53.132;6.090;2022-07-19T14:34:48;36.80;92.30
54700;DHT22;40599;53.132;6.090;2022-07-19T14:37:14;36.90;92.70
54700;DHT22;40599;53.132;6.090;2022-07-19T14:39:40;37.00;92.40
54700;DHT22;40599;53.132;6.090;2022-07-19T14:42:06;36.90;91.90
54700;DHT22;40599;53.132;6.090;2022-07-19T14:44:32;36.90;91.60
54700;DHT22;40599;53.132;6.090;2022-07-19T14:46:58;37.00;92.30
54700;DHT22;40599;53.132;6.090;2022-07-19T14:49:24;37.00;92.40
54700;DHT22;40599;53.132;6.090;2022-07-19T14:51:50;37.00;91.90
54700;DHT22;40599;53.132;6.090;2022-07-19T14:54:16;37.10;91.70
54700;DHT22;40599;53.132;6.090;2022-07-19T14:56:41;37.20;92.00
54700;DHT22;40599;53.132;6.090;2022-07-19T14:59:07;37.30;92.30
54700;DHT22;40599;53.132;6.090;2022-07-19T15:01:33;37.40;92.60
54700;DHT22;40599;53.132;6.090;2022-07-19T15:03:59;37.40;92.10
54700;DHT22;40599;53.132;6.090;2022-07-19T15:06:25;37.30;91.30
54700;DHT22;40599;53.132;6.090;2022-07-19T15:08:51;37.30;91.00
54700;DHT22;40599;53.132;6.090;2022-07-19T15:11:17;37.20;90.90
54700;DHT22;40599;53.132;6.090;2022-07-19T15:13:43;37.20;91.10
54700;DHT22;40599;53.132;6.090;2022-07-19T15:16:09;37.20;90.60
54700;DHT22;40599;53.132;6.090;2022-07-19T15:18:35;37.10;91.10
54700;DHT22;40599;53.132;6.090;2022-07-19T15:21:01;37.20;91.00
54700;DHT22;40599;53.132;6.090;2022-07-19T15:23:27;37.20;91.00
54700;DHT22;40599;53.132;6.090;2022-07-19T15:25:53;37.40;91.50
54700;DHT22;40599;53.132;6.090;2022-07-19T15:28:18;37.50;91.60
54700;DHT22;40599;53.132;6.090;2022-07-19T15:30:44;37.40;90.80
54700;DHT22;40599;53.132;6.090;2022-07-19T15:33:10;37.40;91.00
54700;DHT22;40599;53.132;6.090;2022-07-19T15:35:36;37.40;91.10
54700;DHT22;40599;53.132;6.090;2022-07-19T15:38:01;37.40;91.30
54700;DHT22;40599;53.132;6.090;2022-07-19T15:40:27;37.20;90.80
54700;DHT22;40599;53.132;6.090;2022-07-19T15:42:53;37.20;90.70
54700;DHT22;40599;53.132;6.090;2022-07-19T15:45:20;37.00;90.30
54700;DHT22;40599;53.132;6.090;2022-07-19T15:47:47;37.00;90.40
54700;DHT22;40599;53.132;6.090;2022-07-19T15:50:14;36.80;90.30
54700;DHT22;40599;53.132;6.090;2022-07-19T15:52:40;36.80;90.80
54700;DHT22;40599;53.132;6.090;2022-07-19T15:55:07;36.70;90.60
54700;DHT22;40599;53.132;6.090;2022-07-19T15:57:34;36.60;90.80
54700;DHT22;40599;53.132;6.090;2022-07-19T15:59:59;36.60;91.00
54700;DHT22;40599;53.132;6.090;2022-07-19T16:02:25;36.60;91.30
54700;DHT22;40599;53.132;6.090;2022-07-19T16:04:52;36.50;91.50
54700;DHT22;40599;53.132;6.090;2022-07-19T16:07:18;36.60;92.00
54700;DHT22;40599;53.132;6.090;2022-07-19T16:09:44;36.40;92.00
54700;DHT22;40599;53.132;6.090;2022-07-19T16:12:14;36.30;91.80